Terminal Aerodrome Forecast
Issued by NWS

Home | Current Version | Previous Version | Text Only | Print | Product List | Glossary On
Versions: 1 2 3 4 5 6 7 8 9 10 11 12 13 14 15 16 17 18 19
000
FTUS46 KPDT 301200 AAA
TAFDLS
TAF AMD
KDLS 301213Z 3012/3112 04003KT 5SM -RA BR BKN010 OVC030
     FM301600 VRB03KT 5SM -RA BR SCT010 BKN030
     FM301800 VRB04KT 4SM -RA BR SCT005 BKN030
     FM302100 VRB03KT 6SM BR VCSH BKN030 OVC100
     FM310100 30004KT 3SM -RA BR OVC025
     FM310600 34004KT 2SM RA BR OVC020=

USA.gov is the U.S. government's official web portal to all federal, state and local government web resources and services.